This is the latest recevied weather packets stored in our database for station/object OE5XFR. If no packets are shown the sender has not sent any weather packets the latest 10 day(s).
| Time | Temp. | Humidity | Pressure | Rain* | Wind** | Luminosity | Snow |
|---|---|---|---|---|---|---|---|
| 1777597754 | 3.33° C | 44% | 1028 hPa | 0 mm | - | - | - |
| 1777597034 | 3.33° C | 45% | 1028 hPa | 0 mm | - | - | - |
| 1777596315 | 3.33° C | 46% | 1028 hPa | 0 mm | - | - | - |
| 1777595595 | 2.78° C | 47% | 1028 hPa | 0 mm | - | - | - |
| 1777594875 | 3.33° C | 46% | 1028 hPa | 0 mm | - | - | - |
| 1777594155 | 3.89° C | 43% | 1028 hPa | 0 mm | - | - | - |
| 1777593435 | 3.89° C | 44% | 1028 hPa | 0 mm | - | - | - |
| 1777592715 | 3.89° C | 44% | 1028 hPa | 0 mm | - | - | - |
| 1777591995 | 4.44° C | 39% | 1028 hPa | 0 mm | - | - | - |
| 1777591276 | 4.44° C | 40% | 1028 hPa | 0 mm | - | - | - |
| 1777590556 | 5° C | 38% | 1028 hPa | 0 mm | - | - | - |
| 1777589835 | 5° C | 38% | 1028 hPa | 0 mm | - | - | - |
| 1777589114 | 5.56° C | 36% | 1028 hPa | 0 mm | - | - | - |
| 1777588395 | 5.56° C | 37% | 1028 hPa | 0 mm | - | - | - |
| 1777587676 | 5.56° C | 37% | 1028 hPa | 0 mm | - | - | - |
| 1777586955 | 5.56° C | 36% | 1028 hPa | 0 mm | - | - | - |
| 1777586234 | 6.11° C | 35% | 1028 hPa | 0 mm | - | - | - |
| 1777585514 | 6.11° C | 35% | 1028 hPa | 0 mm | - | - | - |
| 1777584795 | 6.11° C | 34% | 1028 hPa | 0 mm | - | - | - |
| 1777584074 | 6.67° C | 32% | 1028 hPa | 0 mm | - | - | - |
| 1777583355 | 7.22° C | 30% | 1028 hPa | 0 mm | - | - | - |
| 1777582635 | 7.22° C | 30% | 1028 hPa | 0 mm | - | - | - |
| 1777581914 | 7.22° C | 30% | 1028 hPa | 0 mm | - | - | - |
| 1777581194 | 7.22° C | 29% | 1028 hPa | 0 mm | - | - | - |
| 1777580476 | 7.22° C | 29% | 1028 hPa | 0 mm | - | - | - |
* Rain latest hour (hover to see other rain measurements)
** Current wind speed in m/s (hover to see current wind gust speed)